sensor_id;sensor_type;location;lat;lon;timestamp;temperature;humidity
11399;DHT22;5755;48.116;11.608;2022-12-18T00:02:35;-2.90;97.90
11399;DHT22;5755;48.116;11.608;2022-12-18T00:05:11;-2.90;97.80
11399;DHT22;5755;48.116;11.608;2022-12-18T00:08:03;-2.90;97.90
11399;DHT22;5755;48.116;11.608;2022-12-18T00:13:55;-2.90;97.50
11399;DHT22;5755;48.116;11.608;2022-12-18T00:16:26;-2.90;97.40
11399;DHT22;5755;48.116;11.608;2022-12-18T00:19:06;-2.90;97.30
11399;DHT22;5755;48.116;11.608;2022-12-18T00:21:35;-3.10;97.20
11399;DHT22;5755;48.116;11.608;2022-12-18T00:24:05;-3.10;97.50
11399;DHT22;5755;48.116;11.608;2022-12-18T00:26:36;-3.10;97.50
11399;DHT22;5755;48.116;11.608;2022-12-18T00:29:12;-3.00;97.60
11399;DHT22;5755;48.116;11.608;2022-12-18T00:31:54;-3.20;97.60
11399;DHT22;5755;48.116;11.608;2022-12-18T00:34:53;-3.10;98.00
11399;DHT22;5755;48.116;11.608;2022-12-18T00:37:29;-3.00;97.80
11399;DHT22;5755;48.116;11.608;2022-12-18T00:39:56;-3.00;97.50
11399;DHT22;5755;48.116;11.608;2022-12-18T00:45:59;-3.20;97.90
11399;DHT22;5755;48.116;11.608;2022-12-18T00:48:37;-3.00;98.10
11399;DHT22;5755;48.116;11.608;2022-12-18T00:51:35;-3.00;97.90
11399;DHT22;5755;48.116;11.608;2022-12-18T00:54:05;-3.00;97.70
11399;DHT22;5755;48.116;11.608;2022-12-18T00:56:36;-3.00;97.80
11399;DHT22;5755;48.116;11.608;2022-12-18T00:59:18;-3.00;98.20
11399;DHT22;5755;48.116;11.608;2022-12-18T01:01:47;-3.00;97.60
11399;DHT22;5755;48.116;11.608;2022-12-18T01:04:16;-3.00;97.40
11399;DHT22;5755;48.116;11.608;2022-12-18T01:06:45;-3.20;97.70
11399;DHT22;5755;48.116;11.608;2022-12-18T01:09:29;-3.00;97.70
11399;DHT22;5755;48.116;11.608;2022-12-18T01:12:06;-3.10;97.60
11399;DHT22;5755;48.116;11.608;2022-12-18T01:18:23;-3.20;97.60
11399;DHT22;5755;48.116;11.608;2022-12-18T01:21:08;-3.10;97.40
11399;DHT22;5755;48.116;11.608;2022-12-18T01:23:58;-3.10;97.60
11399;DHT22;5755;48.116;11.608;2022-12-18T01:32:53;-3.20;97.40
11399;DHT22;5755;48.116;11.608;2022-12-18T01:35:23;-3.30;97.50
11399;DHT22;5755;48.116;11.608;2022-12-18T01:41:27;-3.10;97.50
11399;DHT22;5755;48.116;11.608;2022-12-18T01:51:34;-3.00;97.10
11399;DHT22;5755;48.116;11.608;2022-12-18T01:54:17;-3.00;97.10
11399;DHT22;5755;48.116;11.608;2022-12-18T01:57:01;-3.10;97.40
11399;DHT22;5755;48.116;11.608;2022-12-18T01:59:59;-3.20;97.40
11399;DHT22;5755;48.116;11.608;2022-12-18T02:02:53;-3.10;97.30
11399;DHT22;5755;48.116;11.608;2022-12-18T02:05:40;-3.10;97.30
11399;DHT22;5755;48.116;11.608;2022-12-18T02:11:54;-3.20;97.40
11399;DHT22;5755;48.116;11.608;2022-12-18T02:17:53;-3.10;97.60
11399;DHT22;5755;48.116;11.608;2022-12-18T02:20:42;-3.00;97.30
11399;DHT22;5755;48.116;11.608;2022-12-18T02:23:45;-2.80;96.90
11399;DHT22;5755;48.116;11.608;2022-12-18T02:26:49;-2.80;96.80
11399;DHT22;5755;48.116;11.608;2022-12-18T02:29:33;-3.00;96.70
11399;DHT22;5755;48.116;11.608;2022-12-18T02:32:24;-2.70;98.00
11399;DHT22;5755;48.116;11.608;2022-12-18T02:35:12;-2.70;98.60
11399;DHT22;5755;48.116;11.608;2022-12-18T02:41:02;-2.90;97.70
11399;DHT22;5755;48.116;11.608;2022-12-18T02:43:46;-2.60;99.40
11399;DHT22;5755;48.116;11.608;2022-12-18T02:46:27;-2.70;98.50
11399;DHT22;5755;48.116;11.608;2022-12-18T02:49:31;-2.60;97.10
11399;DHT22;5755;48.116;11.608;2022-12-18T02:52:31;-2.70;96.10
11399;DHT22;5755;48.116;11.608;2022-12-18T02:58:26;-2.70;97.50
11399;DHT22;5755;48.116;11.608;2022-12-18T03:01:25;-2.80;96.80
11399;DHT22;5755;48.116;11.608;2022-12-18T03:04:18;-2.80;97.00
11399;DHT22;5755;48.116;11.608;2022-12-18T03:07:09;-2.70;97.50
11399;DHT22;5755;48.116;11.608;2022-12-18T03:09:41;-2.80;96.70
11399;DHT22;5755;48.116;11.608;2022-12-18T03:15:31;-3.00;96.80
11399;DHT22;5755;48.116;11.608;2022-12-18T03:18:17;-2.90;96.80
11399;DHT22;5755;48.116;11.608;2022-12-18T03:21:11;-3.00;96.80
11399;DHT22;5755;48.116;11.608;2022-12-18T03:23:46;-3.10;97.20
11399;DHT22;5755;48.116;11.608;2022-12-18T03:26:25;-3.00;97.80
11399;DHT22;5755;48.116;11.608;2022-12-18T03:29:09;-2.80;97.30
11399;DHT22;5755;48.116;11.608;2022-12-18T03:32:00;-2.80;96.90
11399;DHT22;5755;48.116;11.608;2022-12-18T03:34:44;-2.80;96.80
11399;DHT22;5755;48.116;11.608;2022-12-18T03:37:29;-2.80;96.60
11399;DHT22;5755;48.116;11.608;2022-12-18T03:40:11;-3.00;97.00
11399;DHT22;5755;48.116;11.608;2022-12-18T03:42:49;-3.00;97.30
11399;DHT22;5755;48.116;11.608;2022-12-18T03:45:32;-3.10;97.20
11399;DHT22;5755;48.116;11.608;2022-12-18T03:48:25;-3.00;96.90
11399;DHT22;5755;48.116;11.608;2022-12-18T03:51:07;-2.80;97.80
11399;DHT22;5755;48.116;11.608;2022-12-18T03:54:01;-2.80;96.80
11399;DHT22;5755;48.116;11.608;2022-12-18T03:59:44;-2.70;96.10
11399;DHT22;5755;48.116;11.608;2022-12-18T04:02:35;-2.80;96.30
11399;DHT22;5755;48.116;11.608;2022-12-18T04:05:12;-2.80;96.60
11399;DHT22;5755;48.116;11.608;2022-12-18T04:27:49;-3.00;96.70
11399;DHT22;5755;48.116;11.608;2022-12-18T04:30:53;-3.10;96.60
11399;DHT22;5755;48.116;11.608;2022-12-18T04:33:29;-3.10;96.90
11399;DHT22;5755;48.116;11.608;2022-12-18T04:35:57;-3.00;96.90
11399;DHT22;5755;48.116;11.608;2022-12-18T04:42:05;-3.00;96.40
11399;DHT22;5755;48.116;11.608;2022-12-18T04:48:13;-3.00;97.10
11399;DHT22;5755;48.116;11.608;2022-12-18T04:50:47;-3.00;96.90
11399;DHT22;5755;48.116;11.608;2022-12-18T04:53:35;-2.90;96.60
11399;DHT22;5755;48.116;11.608;2022-12-18T04:56:35;-3.10;96.40
11399;DHT22;5755;48.116;11.608;2022-12-18T05:05:43;-3.00;96.30
11399;DHT22;5755;48.116;11.608;2022-12-18T05:12:05;-2.70;96.50
11399;DHT22;5755;48.116;11.608;2022-12-18T05:14:35;-3.10;96.00
11399;DHT22;5755;48.116;11.608;2022-12-18T05:17:03;-3.00;96.70
11399;DHT22;5755;48.116;11.608;2022-12-18T05:19:41;-3.00;96.00
11399;DHT22;5755;48.116;11.608;2022-12-18T05:25:54;-3.00;96.30
11399;DHT22;5755;48.116;11.608;2022-12-18T05:31:47;-3.10;96.80
11399;DHT22;5755;48.116;11.608;2022-12-18T05:34:17;-3.00;96.40
11399;DHT22;5755;48.116;11.608;2022-12-18T05:40:43;-3.00;96.00
11399;DHT22;5755;48.116;11.608;2022-12-18T05:43:48;-3.10;96.00
11399;DHT22;5755;48.116;11.608;2022-12-18T06:00:14;-3.10;95.70
11399;DHT22;5755;48.116;11.608;2022-12-18T06:06:35;-3.20;96.00
11399;DHT22;5755;48.116;11.608;2022-12-18T06:09:11;-3.10;96.00
11399;DHT22;5755;48.116;11.608;2022-12-18T06:15:25;-3.30;96.20
11399;DHT22;5755;48.116;11.608;2022-12-18T06:17:53;-3.30;96.50
11399;DHT22;5755;48.116;11.608;2022-12-18T06:40:11;-3.20;96.00
11399;DHT22;5755;48.116;11.608;2022-12-18T06:42:41;-3.30;96.20
11399;DHT22;5755;48.116;11.608;2022-12-18T06:45:09;-3.40;96.10
11399;DHT22;5755;48.116;11.608;2022-12-18T06:47:36;-3.30;96.10
11399;DHT22;5755;48.116;11.608;2022-12-18T06:50:41;-3.30;95.90
11399;DHT22;5755;48.116;11.608;2022-12-18T06:53:17;-3.40;96.20
11399;DHT22;5755;48.116;11.608;2022-12-18T06:55:46;-3.30;96.30
11399;DHT22;5755;48.116;11.608;2022-12-18T06:58:17;-3.20;96.00
11399;DHT22;5755;48.116;11.608;2022-12-18T07:01:05;-3.40;95.80
11399;DHT22;5755;48.116;11.608;2022-12-18T07:03:42;-3.50;95.90
11399;DHT22;5755;48.116;11.608;2022-12-18T07:06:13;-3.50;96.10
11399;DHT22;5755;48.116;11.608;2022-12-18T07:15:26;-3.50;96.00
11399;DHT22;5755;48.116;11.608;2022-12-18T07:17:53;-3.40;96.30
11399;DHT22;5755;48.116;11.608;2022-12-18T07:20:53;-3.40;96.30
11399;DHT22;5755;48.116;11.608;2022-12-18T07:27:11;-3.30;95.90
11399;DHT22;5755;48.116;11.608;2022-12-18T07:29:48;-3.30;95.70
11399;DHT22;5755;48.116;11.608;2022-12-18T07:32:16;-3.30;95.70
11399;DHT22;5755;48.116;11.608;2022-12-18T07:38:11;-3.30;95.70
11399;DHT22;5755;48.116;11.608;2022-12-18T07:41:06;-3.30;95.80
11399;DHT22;5755;48.116;11.608;2022-12-18T07:43:34;-3.30;95.70
11399;DHT22;5755;48.116;11.608;2022-12-18T07:49:36;-3.20;96.10
11399;DHT22;5755;48.116;11.608;2022-12-18T07:52:05;-3.20;95.80
11399;DHT22;5755;48.116;11.608;2022-12-18T08:07:48;-3.40;95.10
11399;DHT22;5755;48.116;11.608;2022-12-18T08:10:41;-3.30;95.30
11399;DHT22;5755;48.116;11.608;2022-12-18T08:16:30;-3.30;95.30
11399;DHT22;5755;48.116;11.608;2022-12-18T08:19:05;-3.20;95.10
11399;DHT22;5755;48.116;11.608;2022-12-18T08:28:30;-3.30;95.30
11399;DHT22;5755;48.116;11.608;2022-12-18T08:30:58;-3.20;95.10
11399;DHT22;5755;48.116;11.608;2022-12-18T08:33:29;-3.00;94.90
11399;DHT22;5755;48.116;11.608;2022-12-18T08:35:58;-3.30;95.00
11399;DHT22;5755;48.116;11.608;2022-12-18T08:41:47;-2.80;94.90
11399;DHT22;5755;48.116;11.608;2022-12-18T08:44:30;-2.70;94.80
11399;DHT22;5755;48.116;11.608;2022-12-18T08:47:23;-2.70;93.70
11399;DHT22;5755;48.116;11.608;2022-12-18T08:50:17;-3.00;93.40
11399;DHT22;5755;48.116;11.608;2022-12-18T08:53:17;-3.00;94.00
11399;DHT22;5755;48.116;11.608;2022-12-18T08:55:59;-3.00;94.20
11399;DHT22;5755;48.116;11.608;2022-12-18T09:02:01;-2.90;94.30
11399;DHT22;5755;48.116;11.608;2022-12-18T09:04:28;-2.90;94.30
11399;DHT22;5755;48.116;11.608;2022-12-18T09:07:05;-2.90;94.30
11399;DHT22;5755;48.116;11.608;2022-12-18T09:13:12;-2.60;93.50
11399;DHT22;5755;48.116;11.608;2022-12-18T09:19:02;-2.70;93.70
11399;DHT22;5755;48.116;11.608;2022-12-18T09:21:47;-2.70;93.90
11399;DHT22;5755;48.116;11.608;2022-12-18T09:27:41;-2.40;93.50
11399;DHT22;5755;48.116;11.608;2022-12-18T09:30:10;-2.40;92.70
11399;DHT22;5755;48.116;11.608;2022-12-18T09:39:38;-2.50;92.60
11399;DHT22;5755;48.116;11.608;2022-12-18T09:42:20;-2.40;92.30
11399;DHT22;5755;48.116;11.608;2022-12-18T09:45:17;-2.40;92.50
11399;DHT22;5755;48.116;11.608;2022-12-18T09:47:49;-2.30;92.20
11399;DHT22;5755;48.116;11.608;2022-12-18T09:57:01;-2.20;92.10
11399;DHT22;5755;48.116;11.608;2022-12-18T09:59:37;-2.20;92.20
11399;DHT22;5755;48.116;11.608;2022-12-18T10:02:20;-2.30;92.20
11399;DHT22;5755;48.116;11.608;2022-12-18T10:04:55;-2.30;91.90
11399;DHT22;5755;48.116;11.608;2022-12-18T10:07:49;-2.40;92.20
11399;DHT22;5755;48.116;11.608;2022-12-18T10:10:27;-2.50;92.60
11399;DHT22;5755;48.116;11.608;2022-12-18T10:13:19;-2.40;93.10
11399;DHT22;5755;48.116;11.608;2022-12-18T10:16:01;-2.20;92.20
11399;DHT22;5755;48.116;11.608;2022-12-18T10:23:56;-2.30;91.80
11399;DHT22;5755;48.116;11.608;2022-12-18T10:26:25;-2.10;91.90
11399;DHT22;5755;48.116;11.608;2022-12-18T10:28:57;-2.10;90.90
11399;DHT22;5755;48.116;11.608;2022-12-18T10:31:29;-2.20;91.20
11399;DHT22;5755;48.116;11.608;2022-12-18T10:33:56;-2.30;91.40
11399;DHT22;5755;48.116;11.608;2022-12-18T10:36:24;-2.20;91.80
11399;DHT22;5755;48.116;11.608;2022-12-18T10:39:14;-2.00;91.60
11399;DHT22;5755;48.116;11.608;2022-12-18T10:41:42;-2.00;91.20
11399;DHT22;5755;48.116;11.608;2022-12-18T10:44:20;-2.10;91.50
11399;DHT22;5755;48.116;11.608;2022-12-18T10:50:20;-2.20;91.80
11399;DHT22;5755;48.116;11.608;2022-12-18T10:52:55;-2.20;91.00
11399;DHT22;5755;48.116;11.608;2022-12-18T10:55:25;-2.20;91.60
11399;DHT22;5755;48.116;11.608;2022-12-18T10:58:22;-2.10;91.50
11399;DHT22;5755;48.116;11.608;2022-12-18T11:01:12;-2.10;90.90
11399;DHT22;5755;48.116;11.608;2022-12-18T11:03:44;-1.90;91.20
11399;DHT22;5755;48.116;11.608;2022-12-18T11:06:13;-1.70;90.40
11399;DHT22;5755;48.116;11.608;2022-12-18T11:09:18;-1.90;90.40
11399;DHT22;5755;48.116;11.608;2022-12-18T11:11:48;-2.10;90.90
11399;DHT22;5755;48.116;11.608;2022-12-18T11:14:26;-2.10;91.30
11399;DHT22;5755;48.116;11.608;2022-12-18T11:16:55;-1.90;92.20
11399;DHT22;5755;48.116;11.608;2022-12-18T11:19:32;-1.80;90.70
11399;DHT22;5755;48.116;11.608;2022-12-18T11:22:01;-1.70;91.00
11399;DHT22;5755;48.116;11.608;2022-12-18T11:24:34;-1.70;91.00
11399;DHT22;5755;48.116;11.608;2022-12-18T11:27:35;-1.70;90.20
11399;DHT22;5755;48.116;11.608;2022-12-18T11:30:10;-2.00;91.00
11399;DHT22;5755;48.116;11.608;2022-12-18T11:32:45;-1.90;90.90
11399;DHT22;5755;48.116;11.608;2022-12-18T11:35:34;-2.00;90.90
11399;DHT22;5755;48.116;11.608;2022-12-18T11:38:06;-2.10;91.20
11399;DHT22;5755;48.116;11.608;2022-12-18T11:40:44;-2.10;91.30
11399;DHT22;5755;48.116;11.608;2022-12-18T11:43:23;-2.00;91.20
11399;DHT22;5755;48.116;11.608;2022-12-18T11:46:09;-1.90;91.50
11399;DHT22;5755;48.116;11.608;2022-12-18T11:48:43;-1.90;90.90
11399;DHT22;5755;48.116;11.608;2022-12-18T11:51:31;-2.10;91.10
11399;DHT22;5755;48.116;11.608;2022-12-18T11:54:11;-2.30;91.90
11399;DHT22;5755;48.116;11.608;2022-12-18T11:56:44;-2.40;92.40
11399;DHT22;5755;48.116;11.608;2022-12-18T11:59:20;-2.20;92.20
11399;DHT22;5755;48.116;11.608;2022-12-18T12:05:11;-1.90;90.90
11399;DHT22;5755;48.116;11.608;2022-12-18T12:08:00;-1.90;90.80
11399;DHT22;5755;48.116;11.608;2022-12-18T12:10:46;-1.70;90.50
11399;DHT22;5755;48.116;11.608;2022-12-18T12:13:33;-1.90;90.40
11399;DHT22;5755;48.116;11.608;2022-12-18T12:16:24;-2.10;91.20
11399;DHT22;5755;48.116;11.608;2022-12-18T12:19:21;-1.90;90.50
11399;DHT22;5755;48.116;11.608;2022-12-18T12:22:01;-1.80;90.90
11399;DHT22;5755;48.116;11.608;2022-12-18T12:24:51;-1.70;90.60
11399;DHT22;5755;48.116;11.608;2022-12-18T12:27:33;-2.20;90.90
11399;DHT22;5755;48.116;11.608;2022-12-18T12:30:24;-2.00;91.10
11399;DHT22;5755;48.116;11.608;2022-12-18T12:33:08;-2.00;90.90
11399;DHT22;5755;48.116;11.608;2022-12-18T12:35:46;-2.10;91.20
11399;DHT22;5755;48.116;11.608;2022-12-18T12:38:40;-2.30;91.50
11399;DHT22;5755;48.116;11.608;2022-12-18T12:41:20;-2.30;93.00
11399;DHT22;5755;48.116;11.608;2022-12-18T12:44:12;-2.10;91.10
11399;DHT22;5755;48.116;11.608;2022-12-18T12:46:42;-2.30;91.70
11399;DHT22;5755;48.116;11.608;2022-12-18T12:49:20;-2.30;92.10
11399;DHT22;5755;48.116;11.608;2022-12-18T12:51:53;-2.10;92.70
11399;DHT22;5755;48.116;11.608;2022-12-18T12:54:28;-2.60;92.00
11399;DHT22;5755;48.116;11.608;2022-12-18T12:57:01;-2.50;92.40
11399;DHT22;5755;48.116;11.608;2022-12-18T12:59:47;-2.30;92.50
11399;DHT22;5755;48.116;11.608;2022-12-18T13:02:22;-2.20;91.80
11399;DHT22;5755;48.116;11.608;2022-12-18T13:05:16;-2.20;91.60
11399;DHT22;5755;48.116;11.608;2022-12-18T13:07:49;-2.30;91.90
11399;DHT22;5755;48.116;11.608;2022-12-18T13:10:38;-2.20;91.20
11399;DHT22;5755;48.116;11.608;2022-12-18T13:13:18;-2.10;91.10
11399;DHT22;5755;48.116;11.608;2022-12-18T13:16:02;-2.20;91.40
11399;DHT22;5755;48.116;11.608;2022-12-18T13:18:30;-2.10;91.40
11399;DHT22;5755;48.116;11.608;2022-12-18T13:21:20;-2.00;91.10
11399;DHT22;5755;48.116;11.608;2022-12-18T13:23:54;-2.00;91.30
11399;DHT22;5755;48.116;11.608;2022-12-18T13:26:37;-1.90;91.30
11399;DHT22;5755;48.116;11.608;2022-12-18T13:32:20;-2.10;91.20
11399;DHT22;5755;48.116;11.608;2022-12-18T13:34:47;-2.20;91.80
11399;DHT22;5755;48.116;11.608;2022-12-18T13:43:29;-2.30;92.10
11399;DHT22;5755;48.116;11.608;2022-12-18T13:46:18;-2.10;92.10
11399;DHT22;5755;48.116;11.608;2022-12-18T13:48:54;-2.20;92.10
11399;DHT22;5755;48.116;11.608;2022-12-18T13:51:23;-2.20;92.00
11399;DHT22;5755;48.116;11.608;2022-12-18T13:54:01;-2.20;92.20
11399;DHT22;5755;48.116;11.608;2022-12-18T13:56:32;-2.30;92.40
11399;DHT22;5755;48.116;11.608;2022-12-18T13:59:26;-2.30;92.60
11399;DHT22;5755;48.116;11.608;2022-12-18T14:01:56;-2.40;92.70
11399;DHT22;5755;48.116;11.608;2022-12-18T14:04:36;-2.50;92.90
11399;DHT22;5755;48.116;11.608;2022-12-18T14:07:05;-2.50;92.90
11399;DHT22;5755;48.116;11.608;2022-12-18T14:09:36;-2.70;93.50
11399;DHT22;5755;48.116;11.608;2022-12-18T14:12:16;-2.70;93.50
11399;DHT22;5755;48.116;11.608;2022-12-18T14:15:16;-2.70;93.50
11399;DHT22;5755;48.116;11.608;2022-12-18T14:18:18;-2.80;93.80
11399;DHT22;5755;48.116;11.608;2022-12-18T14:20:49;-2.80;94.00
11399;DHT22;5755;48.116;11.608;2022-12-18T14:23:28;-2.70;94.10
11399;DHT22;5755;48.116;11.608;2022-12-18T14:25:56;-2.60;93.90
11399;DHT22;5755;48.116;11.608;2022-12-18T14:28:24;-2.60;93.60
11399;DHT22;5755;48.116;11.608;2022-12-18T14:30:54;-2.60;93.50
11399;DHT22;5755;48.116;11.608;2022-12-18T14:33:23;-2.80;93.90
11399;DHT22;5755;48.116;11.608;2022-12-18T14:35:56;-3.00;94.70
11399;DHT22;5755;48.116;11.608;2022-12-18T14:38:27;-3.00;95.00
11399;DHT22;5755;48.116;11.608;2022-12-18T14:41:01;-2.90;94.90
11399;DHT22;5755;48.116;11.608;2022-12-18T14:43:32;-2.80;94.40
11399;DHT22;5755;48.116;11.608;2022-12-18T14:46:03;-2.80;94.40
11399;DHT22;5755;48.116;11.608;2022-12-18T14:48:59;-2.90;94.50
11399;DHT22;5755;48.116;11.608;2022-12-18T14:51:36;-2.90;94.60
11399;DHT22;5755;48.116;11.608;2022-12-18T14:54:16;-2.90;95.00
11399;DHT22;5755;48.116;11.608;2022-12-18T14:56:50;-2.90;94.90
11399;DHT22;5755;48.116;11.608;2022-12-18T14:59:36;-2.90;95.40
11399;DHT22;5755;48.116;11.608;2022-12-18T15:02:13;-2.80;95.00
11399;DHT22;5755;48.116;11.608;2022-12-18T15:04:59;-2.70;94.80
11399;DHT22;5755;48.116;11.608;2022-12-18T15:07:26;-2.70;94.60
11399;DHT22;5755;48.116;11.608;2022-12-18T15:10:09;-2.90;94.40
11399;DHT22;5755;48.116;11.608;2022-12-18T15:16:01;-3.10;95.20
11399;DHT22;5755;48.116;11.608;2022-12-18T15:18:35;-3.30;95.30
11399;DHT22;5755;48.116;11.608;2022-12-18T15:21:17;-3.20;95.70
11399;DHT22;5755;48.116;11.608;2022-12-18T15:23:54;-3.20;95.30
11399;DHT22;5755;48.116;11.608;2022-12-18T15:26:36;-3.20;95.60
11399;DHT22;5755;48.116;11.608;2022-12-18T15:29:19;-3.20;95.50
11399;DHT22;5755;48.116;11.608;2022-12-18T15:31:59;-3.20;95.20
11399;DHT22;5755;48.116;11.608;2022-12-18T15:34:28;-3.30;95.20
11399;DHT22;5755;48.116;11.608;2022-12-18T15:37:00;-3.30;95.50
11399;DHT22;5755;48.116;11.608;2022-12-18T15:39:27;-3.40;95.40
11399;DHT22;5755;48.116;11.608;2022-12-18T15:42:01;-3.30;95.40
11399;DHT22;5755;48.116;11.608;2022-12-18T15:47:52;-3.20;95.20
11399;DHT22;5755;48.116;11.608;2022-12-18T15:50:25;-3.20;95.20
11399;DHT22;5755;48.116;11.608;2022-12-18T15:52:53;-3.20;95.60
11399;DHT22;5755;48.116;11.608;2022-12-18T15:55:23;-3.20;95.40
11399;DHT22;5755;48.116;11.608;2022-12-18T15:58:09;-3.30;95.50
11399;DHT22;5755;48.116;11.608;2022-12-18T16:00:42;-3.40;96.30
11399;DHT22;5755;48.116;11.608;2022-12-18T16:03:09;-3.20;96.00
11399;DHT22;5755;48.116;11.608;2022-12-18T16:05:38;-3.30;95.60
11399;DHT22;5755;48.116;11.608;2022-12-18T16:08:05;-3.50;95.90
11399;DHT22;5755;48.116;11.608;2022-12-18T16:10:36;-3.40;95.50
11399;DHT22;5755;48.116;11.608;2022-12-18T16:13:23;-3.40;95.90
11399;DHT22;5755;48.116;11.608;2022-12-18T16:15:50;-3.40;95.90
11399;DHT22;5755;48.116;11.608;2022-12-18T16:21:35;-3.40;95.90
11399;DHT22;5755;48.116;11.608;2022-12-18T16:24:11;-3.40;95.90
11399;DHT22;5755;48.116;11.608;2022-12-18T16:26:56;-3.40;95.60
11399;DHT22;5755;48.116;11.608;2022-12-18T16:29:30;-3.50;95.90
11399;DHT22;5755;48.116;11.608;2022-12-18T16:32:06;-3.50;95.90
11399;DHT22;5755;48.116;11.608;2022-12-18T16:34:49;-3.50;95.90
11399;DHT22;5755;48.116;11.608;2022-12-18T16:37:19;-3.50;95.90
11399;DHT22;5755;48.116;11.608;2022-12-18T16:39:46;-3.40;96.10
11399;DHT22;5755;48.116;11.608;2022-12-18T16:42:19;-3.40;95.90
11399;DHT22;5755;48.116;11.608;2022-12-18T16:44:47;-3.30;96.10
11399;DHT22;5755;48.116;11.608;2022-12-18T16:47:18;-3.30;95.90
11399;DHT22;5755;48.116;11.608;2022-12-18T16:49:54;-3.40;96.10
11399;DHT22;5755;48.116;11.608;2022-12-18T16:52:26;-3.40;96.30
11399;DHT22;5755;48.116;11.608;2022-12-18T16:54:58;-3.50;96.30
11399;DHT22;5755;48.116;11.608;2022-12-18T16:57:25;-3.40;96.20
11399;DHT22;5755;48.116;11.608;2022-12-18T17:00:17;-3.30;96.30
11399;DHT22;5755;48.116;11.608;2022-12-18T17:02:54;-3.30;96.10
11399;DHT22;5755;48.116;11.608;2022-12-18T17:05:21;-3.20;95.80
11399;DHT22;5755;48.116;11.608;2022-12-18T17:07:56;-3.30;95.90
11399;DHT22;5755;48.116;11.608;2022-12-18T17:10:23;-3.30;95.90
11399;DHT22;5755;48.116;11.608;2022-12-18T17:12:50;-3.30;95.40
11399;DHT22;5755;48.116;11.608;2022-12-18T17:15:36;-3.30;95.80
11399;DHT22;5755;48.116;11.608;2022-12-18T17:18:03;-3.30;95.50
11399;DHT22;5755;48.116;11.608;2022-12-18T17:20:48;-3.40;95.70
11399;DHT22;5755;48.116;11.608;2022-12-18T17:23:19;-3.30;95.80
11399;DHT22;5755;48.116;11.608;2022-12-18T17:26:00;-3.50;95.60
11399;DHT22;5755;48.116;11.608;2022-12-18T17:28:30;-3.40;95.90
11399;DHT22;5755;48.116;11.608;2022-12-18T17:31:00;-3.60;96.30
11399;DHT22;5755;48.116;11.608;2022-12-18T17:33:27;-3.50;95.90
11399;DHT22;5755;48.116;11.608;2022-12-18T17:36:18;-3.60;96.10
11399;DHT22;5755;48.116;11.608;2022-12-18T17:38:57;-3.60;96.50
11399;DHT22;5755;48.116;11.608;2022-12-18T17:41:25;-3.60;96.40
11399;DHT22;5755;48.116;11.608;2022-12-18T17:43:55;-3.30;95.70
11399;DHT22;5755;48.116;11.608;2022-12-18T17:46:23;-3.40;95.60
11399;DHT22;5755;48.116;11.608;2022-12-18T17:48:51;-3.50;95.90
11399;DHT22;5755;48.116;11.608;2022-12-18T17:51:36;-3.40;95.90
11399;DHT22;5755;48.116;11.608;2022-12-18T17:54:05;-3.30;95.70
11399;DHT22;5755;48.116;11.608;2022-12-18T17:56:32;-3.40;95.80
11399;DHT22;5755;48.116;11.608;2022-12-18T17:58:59;-3.30;95.80
11399;DHT22;5755;48.116;11.608;2022-12-18T18:01:42;-3.20;95.60
11399;DHT22;5755;48.116;11.608;2022-12-18T18:04:12;-3.20;95.50
11399;DHT22;5755;48.116;11.608;2022-12-18T18:06:42;-3.40;95.50
11399;DHT22;5755;48.116;11.608;2022-12-18T18:09:25;-3.50;95.90
11399;DHT22;5755;48.116;11.608;2022-12-18T18:12:07;-3.60;96.40
11399;DHT22;5755;48.116;11.608;2022-12-18T18:14:54;-3.50;96.70
11399;DHT22;5755;48.116;11.608;2022-12-18T18:17:21;-3.40;96.00
11399;DHT22;5755;48.116;11.608;2022-12-18T18:19:54;-3.40;96.30
11399;DHT22;5755;48.116;11.608;2022-12-18T18:22:21;-3.40;96.00
11399;DHT22;5755;48.116;11.608;2022-12-18T18:25:13;-3.30;95.30
11399;DHT22;5755;48.116;11.608;2022-12-18T18:27:48;-3.50;95.40
11399;DHT22;5755;48.116;11.608;2022-12-18T18:30:18;-3.60;95.70
11399;DHT22;5755;48.116;11.608;2022-12-18T18:32:54;-3.40;95.90
11399;DHT22;5755;48.116;11.608;2022-12-18T18:35:41;-3.30;95.70
11399;DHT22;5755;48.116;11.608;2022-12-18T18:38:18;-3.20;95.60
11399;DHT22;5755;48.116;11.608;2022-12-18T18:40:56;-3.20;95.60
11399;DHT22;5755;48.116;11.608;2022-12-18T18:43:30;-3.30;95.60
11399;DHT22;5755;48.116;11.608;2022-12-18T18:45:59;-3.30;95.10
11399;DHT22;5755;48.116;11.608;2022-12-18T18:48:59;-3.40;95.40
11399;DHT22;5755;48.116;11.608;2022-12-18T18:51:30;-3.60;95.70
11399;DHT22;5755;48.116;11.608;2022-12-18T18:53:58;-3.60;96.00
11399;DHT22;5755;48.116;11.608;2022-12-18T18:56:49;-3.70;96.00
11399;DHT22;5755;48.116;11.608;2022-12-18T18:59:24;-3.80;96.00
11399;DHT22;5755;48.116;11.608;2022-12-18T19:02:00;-3.70;96.20
11399;DHT22;5755;48.116;11.608;2022-12-18T19:04:42;-3.80;96.00
11399;DHT22;5755;48.116;11.608;2022-12-18T19:07:09;-3.80;96.20
11399;DHT22;5755;48.116;11.608;2022-12-18T19:09:59;-3.80;96.10
11399;DHT22;5755;48.116;11.608;2022-12-18T19:12:32;-3.80;96.00
11399;DHT22;5755;48.116;11.608;2022-12-18T19:15:36;-3.90;96.40
11399;DHT22;5755;48.116;11.608;2022-12-18T19:18:06;-3.80;96.20
11399;DHT22;5755;48.116;11.608;2022-12-18T19:20:42;-3.80;96.10
11399;DHT22;5755;48.116;11.608;2022-12-18T19:23:12;-3.80;96.40
11399;DHT22;5755;48.116;11.608;2022-12-18T19:25:42;-3.70;95.90
11399;DHT22;5755;48.116;11.608;2022-12-18T19:28:10;-3.70;95.90
11399;DHT22;5755;48.116;11.608;2022-12-18T19:30:38;-3.80;96.10
11399;DHT22;5755;48.116;11.608;2022-12-18T19:33:06;-3.70;96.20
11399;DHT22;5755;48.116;11.608;2022-12-18T19:35:33;-3.70;96.20
11399;DHT22;5755;48.116;11.608;2022-12-18T19:38:00;-3.60;95.90
11399;DHT22;5755;48.116;11.608;2022-12-18T19:40:27;-3.50;95.90
11399;DHT22;5755;48.116;11.608;2022-12-18T19:42:54;-3.60;95.80
11399;DHT22;5755;48.116;11.608;2022-12-18T19:45:27;-3.60;95.90
11399;DHT22;5755;48.116;11.608;2022-12-18T19:47:55;-3.80;95.80
11399;DHT22;5755;48.116;11.608;2022-12-18T19:50:22;-3.80;95.90
11399;DHT22;5755;48.116;11.608;2022-12-18T19:52:49;-3.90;95.80
11399;DHT22;5755;48.116;11.608;2022-12-18T19:55:16;-3.90;95.80
11399;DHT22;5755;48.116;11.608;2022-12-18T19:57:43;-3.90;95.80
11399;DHT22;5755;48.116;11.608;2022-12-18T20:00:11;-4.00;96.00
11399;DHT22;5755;48.116;11.608;2022-12-18T20:02:40;-4.00;95.80
11399;DHT22;5755;48.116;11.608;2022-12-18T20:05:10;-4.00;96.40
11399;DHT22;5755;48.116;11.608;2022-12-18T20:07:48;-3.80;96.20
11399;DHT22;5755;48.116;11.608;2022-12-18T20:10:15;-4.00;96.30
11399;DHT22;5755;48.116;11.608;2022-12-18T20:12:48;-3.90;96.40
11399;DHT22;5755;48.116;11.608;2022-12-18T20:15:15;-3.90;96.20
11399;DHT22;5755;48.116;11.608;2022-12-18T20:17:44;-3.90;96.30
11399;DHT22;5755;48.116;11.608;2022-12-18T20:20:11;-4.10;96.30
11399;DHT22;5755;48.116;11.608;2022-12-18T20:22:38;-3.90;96.30
11399;DHT22;5755;48.116;11.608;2022-12-18T20:25:06;-3.80;96.20
11399;DHT22;5755;48.116;11.608;2022-12-18T20:27:33;-3.90;95.80
11399;DHT22;5755;48.116;11.608;2022-12-18T20:30:00;-3.90;96.20
11399;DHT22;5755;48.116;11.608;2022-12-18T20:32:27;-3.80;96.10
11399;DHT22;5755;48.116;11.608;2022-12-18T20:34:56;-3.80;96.00